Time;durP1;ratioP1;P1;durP2;ratioP2;P2;SDS_P1;SDS_P2;PMS_P1;PMS_P2;Temp;Humidity;BMP_temperature;BMP_pressure;BME280_temperature;BME280_humidity;BME280_pressure;Samples;Min_cycle;Max_cycle;Signal;HPM_P1;HPM_P2
2022/10/13 00:00:15;;;;;;;39.38;33.20;;;;;;;;;;6306346;22;20112;-81
2022/10/13 00:02:41;;;;;;;24.33;21.00;;;;;;;;;;6306824;22;20003;-78
2022/10/13 00:05:07;;;;;;;26.83;22.20;;;;;;;;;;6306587;22;20010;-80
2022/10/13 00:07:33;;;;;;;22.67;20.15;;;;;;;;;;6306659;22;20003;-81
2022/10/13 00:09:59;;;;;;;21.88;19.58;;;;;;;;;;6306791;22;20003;-80
2022/10/13 00:12:26;;;;;;;23.52;20.95;;;;;;;;;;6306612;22;20471;-82
2022/10/13 00:14:52;;;;;;;22.80;20.42;;;;;;;;;;6306799;22;20000;-80
2022/10/13 00:17:18;;;;;;;34.42;30.90;;;;;;;;;;6306260;22;20000;-81
2022/10/13 00:19:44;;;;;;;29.63;25.88;;;;;;;;;;6306560;22;20072;-78
2022/10/13 00:22:10;;;;;;;25.70;23.10;;;;;;;;;;6306617;22;20003;-79
2022/10/13 00:24:36;;;;;;;22.08;19.77;;;;;;;;;;6306511;22;20070;-78
2022/10/13 00:27:02;;;;;;;24.00;19.42;;;;;;;;;;6307026;22;20437;-80
2022/10/13 00:29:28;;;;;;;23.30;20.55;;;;;;;;;;6306181;22;19999;-79
2022/10/13 00:31:54;;;;;;;23.48;20.58;;;;;;;;;;6306651;22;19991;-78
2022/10/13 00:34:20;;;;;;;24.67;21.98;;;;;;;;;;6306213;22;20442;-79
2022/10/13 00:36:46;;;;;;;22.70;20.30;;;;;;;;;;6306522;22;20003;-80
2022/10/13 00:39:12;;;;;;;24.70;22.02;;;;;;;;;;6306545;22;20360;-78
2022/10/13 00:41:38;;;;;;;25.63;21.98;;;;;;;;;;6306333;22;20030;-78
2022/10/13 00:44:06;;;;;;;25.70;21.90;;;;;;;;;;6306476;22;20484;-81
2022/10/13 00:46:35;;;;;;;26.08;22.88;;;;;;;;;;6280459;22;20310;-81
2022/10/13 00:49:06;;;;;;;22.75;20.38;;;;;;;;;;6308407;22;20038;-78
2022/10/13 00:51:34;;;;;;;24.70;21.98;;;;;;;;;;6308205;22;20000;-81
2022/10/13 00:54:01;;;;;;;23.88;21.13;;;;;;;;;;6308466;22;19999;-79
2022/10/13 00:56:27;;;;;;;24.83;22.20;;;;;;;;;;6308183;22;20069;-80
2022/10/13 00:58:54;;;;;;;23.95;20.33;;;;;;;;;;6308514;22;20098;-81
2022/10/13 01:01:21;;;;;;;25.85;23.00;;;;;;;;;;6308023;22;20068;-79
2022/10/13 01:03:47;;;;;;;23.70;21.20;;;;;;;;;;6308547;22;20008;-82
2022/10/13 01:06:13;;;;;;;26.92;23.92;;;;;;;;;;6308318;22;20010;-80
2022/10/13 01:08:39;;;;;;;25.52;21.10;;;;;;;;;;6308058;22;20000;-80
2022/10/13 01:11:11;;;;;;;23.98;21.40;;;;;;;;;;6308312;22;19999;-79
2022/10/13 01:13:40;;;;;;;23.25;20.20;;;;;;;;;;6308141;22;20007;-78
2022/10/13 01:16:14;;;;;;;23.52;21.00;;;;;;;;;;6308251;22;20438;-80
2022/10/13 01:18:52;;;;;;;23.58;20.15;;;;;;;;;;6308232;22;19995;-81
2022/10/13 01:21:24;;;;;;;24.05;21.60;;;;;;;;;;6307860;22;20004;-82
2022/10/13 01:24:09;;;;;;;24.80;22.17;;;;;;;;;;6308221;22;20003;-81
2022/10/13 01:26:35;;;;;;;;;;;;;;;;;;6308652;22;20000;-80
2022/10/13 01:29:10;;;;;;;25.60;21.52;;;;;;;;;;6307881;22;20352;-80
2022/10/13 01:31:54;;;;;;;22.15;19.75;;;;;;;;;;6307965;22;20003;-79
2022/10/13 01:34:20;;;;;;;23.33;20.20;;;;;;;;;;6308009;22;20379;-81
2022/10/13 01:37:04;;;;;;;24.52;21.42;;;;;;;;;;6307891;22;20502;-82
2022/10/13 01:39:30;;;;;;;23.77;21.27;;;;;;;;;;6307884;22;19999;-83
2022/10/13 01:42:01;;;;;;;22.95;20.08;;;;;;;;;;6308072;22;20011;-81
2022/10/13 01:44:32;;;;;;;23.63;21.08;;;;;;;;;;6307872;22;20030;-79
2022/10/13 01:46:59;;;;;;;22.58;20.13;;;;;;;;;;6308034;22;19999;-81
2022/10/13 01:49:27;;;;;;;24.20;21.60;;;;;;;;;;6307723;22;20003;-81
2022/10/13 01:51:54;;;;;;;24.17;21.50;;;;;;;;;;6307944;22;20021;-82
2022/10/13 01:54:20;;;;;;;24.60;22.02;;;;;;;;;;6280516;22;20015;-79
2022/10/13 01:56:53;;;;;;;24.25;21.42;;;;;;;;;;6307991;22;20064;-83
2022/10/13 01:59:19;;;;;;;23.98;21.00;;;;;;;;;;6307441;22;20008;-82
2022/10/13 02:01:51;;;;;;;24.08;21.48;;;;;;;;;;6307860;22;20002;-83
2022/10/13 02:04:25;;;;;;;26.50;22.05;;;;;;;;;;6307669;22;20326;-81
2022/10/13 02:06:55;;;;;;;25.00;21.50;;;;;;;;;;6307732;22;20003;-81
2022/10/13 02:09:27;;;;;;;24.25;21.63;;;;;;;;;;6307690;22;20035;-80
2022/10/13 02:11:58;;;;;;;25.70;22.17;;;;;;;;;;6280133;22;20010;-81
2022/10/13 02:14:26;;;;;;;23.65;21.13;;;;;;;;;;6307770;22;20435;-82
2022/10/13 02:16:53;;;;;;;24.33;21.73;;;;;;;;;;6307570;22;19999;-83
2022/10/13 02:19:19;;;;;;;23.48;20.92;;;;;;;;;;6307642;22;20003;-79
2022/10/13 02:21:46;;;;;;;22.60;20.17;;;;;;;;;;6307319;22;20026;-79
2022/10/13 02:24:13;;;;;;;22.70;20.40;;;;;;;;;;6307715;22;19999;-81
2022/10/13 02:26:40;;;;;;;26.75;22.40;;;;;;;;;;6307593;22;20004;-83
2022/10/13 02:29:08;;;;;;;23.70;21.23;;;;;;;;;;6307377;22;20002;-78
2022/10/13 02:31:34;;;;;;;23.63;21.05;;;;;;;;;;6307571;22;20007;-81
2022/10/13 02:34:00;;;;;;;23.30;20.35;;;;;;;;;;6307323;22;20002;-81
2022/10/13 02:36:26;;;;;;;22.60;20.23;;;;;;;;;;6307549;22;19995;-78
2022/10/13 02:38:52;;;;;;;28.30;21.95;;;;;;;;;;6307262;22;20026;-82
2022/10/13 02:41:18;;;;;;;24.13;21.52;;;;;;;;;;6307473;22;20003;-82
2022/10/13 02:43:44;;;;;;;23.00;20.50;;;;;;;;;;6307393;22;20006;-82
2022/10/13 02:46:10;;;;;;;23.42;20.92;;;;;;;;;;6307294;22;20395;-81
2022/10/13 02:48:36;;;;;;;23.38;20.88;;;;;;;;;;6307300;22;20007;-80
2022/10/13 02:51:02;;;;;;;22.77;20.48;;;;;;;;;;6307214;22;20074;-82
2022/10/13 02:53:28;;;;;;;23.60;20.90;;;;;;;;;;6307785;22;19999;-79
2022/10/13 02:55:55;;;;;;;24.83;22.25;;;;;;;;;;6307079;22;20007;-82
2022/10/13 02:58:21;;;;;;;26.50;21.98;;;;;;;;;;6307199;22;20031;-83
2022/10/13 03:00:47;;;;;;;27.23;21.90;;;;;;;;;;6307090;22;20015;-80
2022/10/13 03:03:13;;;;;;;25.52;22.92;;;;;;;;;;6307111;22;20022;-82
2022/10/13 03:05:39;;;;;;;25.00;22.30;;;;;;;;;;6307251;22;20074;-82
2022/10/13 03:08:05;;;;;;;26.50;22.00;;;;;;;;;;6306764;22;20003;-82
2022/10/13 03:10:31;;;;;;;26.42;21.27;;;;;;;;;;6307193;22;20007;-84
2022/10/13 03:12:58;;;;;;;25.90;21.38;;;;;;;;;;6279619;22;20363;-81
2022/10/13 03:15:24;;;;;;;29.65;23.70;;;;;;;;;;6307186;22;20026;-84
2022/10/13 03:17:50;;;;;;;36.65;28.70;;;;;;;;;;6307174;22;20427;-86
2022/10/13 03:20:16;;;;;;;36.67;29.40;;;;;;;;;;6306950;22;20089;-82
2022/10/13 03:22:43;;;;;;;35.13;29.98;;;;;;;;;;6307439;22;20003;-84
2022/10/13 03:25:09;;;;;;;30.52;26.63;;;;;;;;;;6306867;22;19995;-83
2022/10/13 03:27:35;;;;;;;37.13;27.13;;;;;;;;;;6307122;22;20074;-85
2022/10/13 03:30:01;;;;;;;31.73;26.42;;;;;;;;;;6306954;22;19999;-86
2022/10/13 03:32:30;;;;;;;33.25;27.73;;;;;;;;;;6306820;22;19999;-85
2022/10/13 03:34:56;;;;;;;32.65;27.55;;;;;;;;;;6254482;22;20077;-82
2022/10/13 03:37:22;;;;;;;34.92;27.98;;;;;;;;;;6306729;22;20045;-81
2022/10/13 03:39:48;;;;;;;31.52;26.67;;;;;;;;;;6307045;22;19999;-84
2022/10/13 03:42:15;;;;;;;30.38;24.50;;;;;;;;;;6306661;22;20057;-82
2022/10/13 03:44:41;;;;;;;27.35;23.75;;;;;;;;;;6306284;22;20000;-81
2022/10/13 03:47:07;;;;;;;32.03;24.27;;;;;;;;;;6306689;22;20064;-80
2022/10/13 03:49:33;;;;;;;25.63;22.35;;;;;;;;;;6279290;22;20000;-83
2022/10/13 03:51:59;;;;;;;29.17;24.17;;;;;;;;;;6306398;22;20018;-84
2022/10/13 03:54:25;;;;;;;27.23;22.42;;;;;;;;;;6306378;22;20007;-84
2022/10/13 03:56:51;;;;;;;27.52;23.15;;;;;;;;;;6306783;22;20326;-81
2022/10/13 03:59:17;;;;;;;27.40;23.38;;;;;;;;;;6306338;22;20015;-83
2022/10/13 04:01:43;;;;;;;28.35;25.33;;;;;;;;;;6306445;22;20069;-84
2022/10/13 04:04:11;;;;;;;27.27;23.90;;;;;;;;;;6306407;22;20025;-82
2022/10/13 04:06:38;;;;;;;36.80;28.48;;;;;;;;;;6306409;22;20072;-82
2022/10/13 04:09:04;;;;;;;28.70;24.77;;;;;;;;;;6278838;22;20082;-79
2022/10/13 04:11:32;;;;;;;29.15;25.48;;;;;;;;;;6306146;22;20029;-86
2022/10/13 04:13:59;;;;;;;27.25;24.33;;;;;;;;;;6306673;22;19996;-84
2022/10/13 04:16:27;;;;;;;27.52;23.13;;;;;;;;;;6306322;22;20003;-80
2022/10/13 04:18:58;;;;;;;27.15;24.02;;;;;;;;;;6306419;22;20003;-83
2022/10/13 04:21:24;;;;;;;28.00;24.58;;;;;;;;;;6307921;22;19999;-81
2022/10/13 04:23:51;;;;;;;28.58;23.85;;;;;;;;;;6308526;22;19995;-82
2022/10/13 04:26:19;;;;;;;30.77;27.23;;;;;;;;;;6308379;22;20030;-82
2022/10/13 04:28:47;;;;;;;29.92;25.33;;;;;;;;;;6308545;22;20003;-80
2022/10/13 04:31:13;;;;;;;25.73;23.02;;;;;;;;;;6308424;22;20007;-81
2022/10/13 04:33:39;;;;;;;32.60;28.17;;;;;;;;;;6308266;22;20049;-81
2022/10/13 04:36:06;;;;;;;31.65;27.30;;;;;;;;;;6308499;22;19999;-80
2022/10/13 04:38:33;;;;;;;34.67;29.40;;;;;;;;;;6308036;22;20029;-81
2022/10/13 04:41:01;;;;;;;35.85;29.98;;;;;;;;;;6307902;22;20010;-83
2022/10/13 04:43:28;;;;;;;32.97;28.98;;;;;;;;;;6308239;22;20088;-80
2022/10/13 04:45:59;;;;;;;34.78;29.48;;;;;;;;;;6308521;22;20003;-83
2022/10/13 04:48:25;;;;;;;33.15;29.55;;;;;;;;;;6308179;22;19999;-81
2022/10/13 04:50:58;;;;;;;33.08;29.20;;;;;;;;;;6308439;22;20030;-83
2022/10/13 04:53:27;;;;;;;34.13;30.50;;;;;;;;;;6308521;22;20004;-84
2022/10/13 04:55:54;;;;;;;36.85;31.52;;;;;;;;;;6308226;22;20030;-81
2022/10/13 04:58:20;;;;;;;32.25;28.35;;;;;;;;;;6280476;22;20003;-82
2022/10/13 05:00:46;;;;;;;33.80;29.70;;;;;;;;;;6307759;22;20011;-83
2022/10/13 05:03:12;;;;;;;31.85;28.38;;;;;;;;;;6280797;22;20000;-82
2022/10/13 05:05:42;;;;;;;30.88;27.48;;;;;;;;;;6308079;22;20007;-84
2022/10/13 05:08:08;;;;;;;32.05;27.83;;;;;;;;;;6307862;22;20027;-82
2022/10/13 05:10:34;;;;;;;40.70;32.78;;;;;;;;;;6307280;22;20067;-82
2022/10/13 05:13:00;;;;;;;38.25;31.50;;;;;;;;;;6307473;22;20004;-83
2022/10/13 05:15:26;;;;;;;37.90;31.70;;;;;;;;;;6307732;22;20007;-81
2022/10/13 05:17:52;;;;;;;50.47;38.30;;;;;;;;;;6308193;22;20439;-83
2022/10/13 05:20:18;;;;;;;61.90;44.55;;;;;;;;;;6280426;22;20053;-82
2022/10/13 05:22:44;;;;;;;34.65;29.65;;;;;;;;;;6280570;22;19999;-82
2022/10/13 05:25:10;;;;;;;31.52;26.42;;;;;;;;;;6308284;22;19995;-79
2022/10/13 05:27:37;;;;;;;29.70;26.55;;;;;;;;;;6307602;22;20000;-83
2022/10/13 05:30:03;;;;;;;29.45;26.02;;;;;;;;;;6307039;22;20385;-81
2022/10/13 05:32:29;;;;;;;29.77;26.40;;;;;;;;;;6279975;22;20003;-81
2022/10/13 05:34:55;;;;;;;31.05;26.05;;;;;;;;;;6307283;22;20433;-81
2022/10/13 05:37:21;;;;;;;28.92;24.65;;;;;;;;;;6307141;22;20000;-83
2022/10/13 05:39:48;;;;;;;31.85;27.90;;;;;;;;;;6307730;22;20342;-83
2022/10/13 05:42:14;;;;;;;32.03;27.80;;;;;;;;;;6274854;22;20498;-83
2022/10/13 05:44:40;;;;;;;32.58;29.02;;;;;;;;;;6306905;22;20010;-86
2022/10/13 05:47:06;;;;;;;25.08;20.05;;;;;;;;;;6278109;22;20011;-80
2022/10/13 05:49:35;;;;;;;24.20;19.13;;;;;;;;;;6305602;22;20003;-83
2022/10/13 05:52:03;;;;;;;24.23;18.92;;;;;;;;;;6279990;22;20064;-82
2022/10/13 05:54:33;;;;;;;27.35;22.08;;;;;;;;;;6280913;22;20014;-83
2022/10/13 05:57:08;;;;;;;25.92;22.48;;;;;;;;;;6306069;22;20010;-83
2022/10/13 05:59:37;;;;;;;25.30;21.27;;;;;;;;;;6305197;22;20015;-87
2022/10/13 06:02:04;;;;;;;28.23;25.13;;;;;;;;;;6306086;22;20300;-81
2022/10/13 06:04:32;;;;;;;26.40;22.88;;;;;;;;;;6306160;22;20003;-81
2022/10/13 06:06:58;;;;;;;35.63;27.20;;;;;;;;;;6305928;22;19999;-81
2022/10/13 06:09:24;;;;;;;32.70;27.92;;;;;;;;;;6305407;22;20012;-80
2022/10/13 06:11:50;;;;;;;32.50;26.58;;;;;;;;;;6305612;22;20017;-83
2022/10/13 06:14:16;;;;;;;33.42;29.75;;;;;;;;;;6305994;22;20002;-82
2022/10/13 06:16:42;;;;;;;33.65;30.02;;;;;;;;;;6278972;22;20441;-82
2022/10/13 06:19:08;;;;;;;30.30;27.20;;;;;;;;;;6306342;22;20072;-84
2022/10/13 06:21:35;;;;;;;29.55;26.45;;;;;;;;;;6279101;22;20416;-83
2022/10/13 06:24:01;;;;;;;31.90;28.33;;;;;;;;;;6278667;22;20415;-83
2022/10/13 06:26:27;;;;;;;32.60;29.13;;;;;;;;;;6305823;22;20490;-83
2022/10/13 06:28:54;;;;;;;33.13;29.65;;;;;;;;;;6305258;22;20003;-84
2022/10/13 06:31:20;;;;;;;92.80;82.63;;;;;;;;;;6306194;22;20048;-81
2022/10/13 06:33:46;;;;;;;98.95;88.70;;;;;;;;;;6304211;22;20029;-82
2022/10/13 06:36:12;;;;;;;60.53;49.25;;;;;;;;;;6306153;22;20003;-83
2022/10/13 06:38:38;;;;;;;41.97;36.53;;;;;;;;;;6305280;22;19995;-82
2022/10/13 06:41:05;;;;;;;43.00;36.00;;;;;;;;;;6304826;22;20006;-82
2022/10/13 06:43:31;;;;;;;35.28;29.52;;;;;;;;;;6304630;22;20003;-84
2022/10/13 06:45:58;;;;;;;54.13;45.85;;;;;;;;;;6278122;22;20007;-83
2022/10/13 06:48:24;;;;;;;49.72;44.22;;;;;;;;;;6304751;22;20097;-84
2022/10/13 06:50:51;;;;;;;44.80;38.97;;;;;;;;;;6276669;22;20033;-82
2022/10/13 06:53:17;;;;;;;37.72;33.63;;;;;;;;;;6277312;22;20022;-83
2022/10/13 06:55:43;;;;;;;37.30;33.38;;;;;;;;;;6304570;22;19999;-84
2022/10/13 06:58:09;;;;;;;33.35;28.92;;;;;;;;;;6304908;22;20026;-82
2022/10/13 07:00:36;;;;;;;31.15;27.73;;;;;;;;;;6277745;22;20374;-83
2022/10/13 07:03:02;;;;;;;29.60;25.88;;;;;;;;;;6304981;22;20007;-82
2022/10/13 07:05:29;;;;;;;30.25;26.98;;;;;;;;;;6305200;22;20070;-82
2022/10/13 07:07:55;;;;;;;28.77;25.77;;;;;;;;;;6304717;22;20003;-81
2022/10/13 07:10:22;;;;;;;29.73;26.73;;;;;;;;;;6304230;22;20003;-85
2022/10/13 07:12:48;;;;;;;31.88;28.42;;;;;;;;;;6304943;22;19999;-87
2022/10/13 07:15:14;;;;;;;34.88;30.10;;;;;;;;;;6253844;22;20007;-88
2022/10/13 07:17:40;;;;;;;40.03;30.00;;;;;;;;;;6278840;22;19999;-88
2022/10/13 07:20:07;;;;;;;39.15;32.72;;;;;;;;;;6278196;22;20388;-86
2022/10/13 07:22:33;;;;;;;38.38;32.67;;;;;;;;;;6277999;22;20011;-86
2022/10/13 07:24:59;;;;;;;42.35;33.50;;;;;;;;;;6305262;22;19999;-85
2022/10/13 07:27:25;;;;;;;45.67;35.50;;;;;;;;;;6305361;22;20343;-85
2022/10/13 07:29:51;;;;;;;62.42;39.17;;;;;;;;;;6305135;22;20090;-84
2022/10/13 07:32:17;;;;;;;52.25;40.22;;;;;;;;;;6305413;22;20790;-87
2022/10/13 07:34:43;;;;;;;71.80;44.28;;;;;;;;;;6277614;22;20003;-82
2022/10/13 07:37:09;;;;;;;69.47;41.65;;;;;;;;;;6304098;22;19999;-82
2022/10/13 07:39:35;;;;;;;68.43;48.25;;;;;;;;;;6304651;22;20704;-86
2022/10/13 07:42:01;;;;;;;51.38;37.20;;;;;;;;;;6304673;22;20370;-82
2022/10/13 07:44:28;;;;;;;63.95;35.28;;;;;;;;;;6304303;22;20008;-82
2022/10/13 07:46:55;;;;;;;91.47;61.25;;;;;;;;;;6305479;22;20101;-81
2022/10/13 07:49:21;;;;;;;51.25;35.97;;;;;;;;;;6304748;22;20007;-83
2022/10/13 07:51:47;;;;;;;63.95;46.10;;;;;;;;;;6304755;22;20499;-85
2022/10/13 07:54:14;;;;;;;57.42;36.60;;;;;;;;;;6303954;22;20027;-83
2022/10/13 07:56:40;;;;;;;55.15;37.63;;;;;;;;;;6304903;22;20070;-84
2022/10/13 07:59:06;;;;;;;88.35;49.33;;;;;;;;;;6304422;22;20039;-83
2022/10/13 08:01:32;;;;;;;63.50;42.30;;;;;;;;;;6303570;22;20003;-82
2022/10/13 08:03:58;;;;;;;53.65;37.42;;;;;;;;;;6305380;22;20327;-83
2022/10/13 08:06:24;;;;;;;53.15;36.42;;;;;;;;;;6304501;22;19999;-82
2022/10/13 08:08:51;;;;;;;302.88;97.82;;;;;;;;;;6304892;22;19995;-82
2022/10/13 08:11:17;;;;;;;208.65;77.60;;;;;;;;;;6304480;22;20078;-77
2022/10/13 08:14:02;;;;;;;115.45;49.78;;;;;;;;;;6304858;22;20070;-79
2022/10/13 08:16:29;;;;;;;64.75;38.15;;;;;;;;;;6305024;22;20452;-80
2022/10/13 08:18:56;;;;;;;55.05;36.92;;;;;;;;;;6305173;22;20517;-80
2022/10/13 08:21:22;;;;;;;49.95;37.10;;;;;;;;;;6303827;22;20074;-79
2022/10/13 08:23:49;;;;;;;39.03;30.35;;;;;;;;;;6305107;22;20031;-79
2022/10/13 08:26:25;;;;;;;38.90;31.45;;;;;;;;;;6304797;22;20053;-82
2022/10/13 08:28:52;;;;;;;38.92;31.58;;;;;;;;;;6304762;22;20014;-83
2022/10/13 08:31:18;;;;;;;50.40;44.28;;;;;;;;;;6304856;22;19995;-83
2022/10/13 08:33:48;;;;;;;51.47;45.95;;;;;;;;;;6304332;22;20003;-82
2022/10/13 08:36:15;;;;;;;47.10;37.85;;;;;;;;;;6303987;22;20006;-84
2022/10/13 08:38:41;;;;;;;37.50;33.53;;;;;;;;;;6304323;22;20003;-86
2022/10/13 08:41:16;;;;;;;36.15;32.28;;;;;;;;;;6304021;22;20009;-83
2022/10/13 08:43:44;;;;;;;36.97;32.35;;;;;;;;;;6304218;22;20010;-84
2022/10/13 08:46:12;;;;;;;33.95;30.27;;;;;;;;;;6276622;22;20056;-87
2022/10/13 08:48:39;;;;;;;31.95;28.52;;;;;;;;;;6302978;22;19999;-85
2022/10/13 08:51:07;;;;;;;31.83;28.35;;;;;;;;;;6276426;22;20011;-84
2022/10/13 08:53:35;;;;;;;31.60;28.20;;;;;;;;;;6303494;22;20003;-83
2022/10/13 08:56:09;;;;;;;31.48;27.65;;;;;;;;;;6276715;22;20022;-87
2022/10/13 08:58:36;;;;;;;32.80;27.20;;;;;;;;;;6304637;22;20010;-80
2022/10/13 09:01:08;;;;;;;28.38;25.35;;;;;;;;;;6304052;22;20014;-85
2022/10/13 09:03:40;;;;;;;34.03;27.45;;;;;;;;;;6304295;22;20003;-84
2022/10/13 09:06:12;;;;;;;44.63;31.30;;;;;;;;;;6304564;22;20121;-88
2022/10/13 09:08:53;;;;;;;39.33;27.85;;;;;;;;;;6307296;22;20003;-82
2022/10/13 09:11:19;;;;;;;34.55;30.33;;;;;;;;;;6305422;22;20003;-79
2022/10/13 09:13:45;;;;;;;73.82;38.75;;;;;;;;;;6305030;22;20006;-83
2022/10/13 09:16:11;;;;;;;67.53;34.47;;;;;;;;;;6306432;22;20053;-83
2022/10/13 09:18:38;;;;;;;53.25;31.92;;;;;;;;;;6305870;22;20102;-83
2022/10/13 09:21:09;;;;;;;69.90;34.70;;;;;;;;;;6306717;22;20010;-84
2022/10/13 09:23:35;;;;;;;37.92;27.85;;;;;;;;;;6305039;22;19996;-82
2022/10/13 09:26:06;;;;;;;86.13;38.40;;;;;;;;;;6277865;22;20312;-81
2022/10/13 09:28:32;;;;;;;51.67;32.83;;;;;;;;;;6306075;22;20014;-83
2022/10/13 09:31:05;;;;;;;73.35;37.55;;;;;;;;;;6279141;22;20007;-82
2022/10/13 09:33:34;;;;;;;117.20;48.00;;;;;;;;;;6304936;22;19995;-83
2022/10/13 09:39:04;;;;;;;54.22;32.88;;;;;;;;;;6305972;22;20022;-85
2022/10/13 09:41:30;;;;;;;414.50;127.60;;;;;;;;;;6277821;22;20027;-82
2022/10/13 09:44:04;;;;;;;99.53;44.28;;;;;;;;;;6305108;22;20064;-83
2022/10/13 09:46:49;;;;;;;47.33;30.17;;;;;;;;;;6304344;22;20003;-83
2022/10/13 09:49:37;;;;;;;52.72;30.23;;;;;;;;;;6305372;22;20011;-81
2022/10/13 09:52:24;;;;;;;54.13;45.85;;;;;;;;;;6306036;22;20010;-84
2022/10/13 09:54:50;;;;;;;37.75;29.48;;;;;;;;;;6306115;22;20011;-84
2022/10/13 09:57:34;;;;;;;48.72;31.30;;;;;;;;;;6305717;22;20494;-82
2022/10/13 10:00:00;;;;;;;;;;;;;;;;;;6305954;22;20166;-82
2022/10/13 10:02:56;;;;;;;39.22;27.52;;;;;;;;;;6304911;22;20373;-84
2022/10/13 10:05:25;;;;;;;54.42;35.63;;;;;;;;;;6252192;22;20007;-81
2022/10/13 10:07:51;;;;;;;36.08;28.00;;;;;;;;;;6303794;22;20006;-82
2022/10/13 10:10:27;;;;;;;36.95;27.10;;;;;;;;;;6304426;22;20504;-83
2022/10/13 10:12:53;;;;;;;39.28;29.33;;;;;;;;;;6304066;22;19995;-82
2022/10/13 10:15:22;;;;;;;37.72;28.63;;;;;;;;;;6277646;22;20010;-80
2022/10/13 10:17:52;;;;;;;42.08;29.80;;;;;;;;;;6303552;22;20031;-81
2022/10/13 10:20:24;;;;;;;42.17;27.73;;;;;;;;;;6304790;22;20026;-83
2022/10/13 10:22:56;;;;;;;39.83;31.08;;;;;;;;;;6276022;22;20007;-81
2022/10/13 10:25:29;;;;;;;34.67;28.27;;;;;;;;;;6305217;22;20009;-84
2022/10/13 10:28:21;;;;;;;31.08;25.23;;;;;;;;;;6305761;22;20571;-82
2022/10/13 10:30:53;;;;;;;37.85;30.13;;;;;;;;;;6257765;22;20144;-79
2022/10/13 10:33:21;;;;;;;39.95;31.73;;;;;;;;;;6305595;22;19998;-82
2022/10/13 10:35:50;;;;;;;33.47;26.92;;;;;;;;;;6276742;22;20410;-81
2022/10/13 10:38:22;;;;;;;36.70;30.60;;;;;;;;;;6303033;22;20473;-81
2022/10/13 10:40:48;;;;;;;37.97;27.65;;;;;;;;;;6303867;22;20057;-84
2022/10/13 10:43:33;;;;;;;81.20;39.90;;;;;;;;;;6305659;22;20027;-85
2022/10/13 10:45:58;;;;;;;;;;;;;;;;;;6277313;22;20033;-83
2022/10/13 10:48:28;;;;;;;64.30;42.63;;;;;;;;;;6304593;22;19907;-80
2022/10/13 10:50:54;;;;;;;168.20;72.45;;;;;;;;;;6304400;22;19996;-82
2022/10/13 10:53:38;;;;;;;228.85;85.22;;;;;;;;;;6303068;22;20007;-80
2022/10/13 10:56:23;;;;;;;118.22;91.32;;;;;;;;;;6302772;22;20386;-81
2022/10/13 10:58:49;;;;;;;;;;;;;;;;;;6304008;22;20074;-81
2022/10/13 11:01:30;;;;;;;75.22;63.08;;;;;;;;;;6303031;22;20236;-87
2022/10/13 11:04:00;;;;;;;42.28;36.95;;;;;;;;;;6278056;22;20007;-84
2022/10/13 11:06:36;;;;;;;37.10;32.65;;;;;;;;;;6303576;22;19995;-85
2022/10/13 11:09:04;;;;;;;34.17;30.42;;;;;;;;;;6304467;22;20014;-86
2022/10/13 11:11:31;;;;;;;37.65;33.63;;;;;;;;;;6302284;22;20060;-84
2022/10/13 11:13:59;;;;;;;37.47;31.75;;;;;;;;;;6305074;22;20007;-87
2022/10/13 11:16:38;;;;;;;34.78;31.13;;;;;;;;;;6304564;22;19999;-90
2022/10/13 11:19:05;;;;;;;31.75;27.95;;;;;;;;;;6277485;22;20018;-85
2022/10/13 11:21:50;;;;;;;34.58;30.77;;;;;;;;;;6278285;22;20014;-83
2022/10/13 11:24:46;;;;;;;32.15;27.73;;;;;;;;;;6277248;22;20061;-86
2022/10/13 11:27:15;;;;;;;36.38;31.90;;;;;;;;;;6279888;22;20014;-86
2022/10/13 11:35:00;;;;;;;29.80;25.83;;;;;;;;;;6304824;22;20011;-80
2022/10/13 11:37:45;;;;;;;30.02;26.60;;;;;;;;;;6302676;22;20070;-85
2022/10/13 11:40:24;;;;;;;36.17;29.08;;;;;;;;;;6304014;22;19999;-84
2022/10/13 11:43:09;;;;;;;33.17;28.40;;;;;;;;;;6304670;22;20057;-87
2022/10/13 11:45:35;;;;;;;32.33;28.02;;;;;;;;;;6306566;22;20003;-86
2022/10/13 11:48:21;;;;;;;32.45;27.25;;;;;;;;;;6305479;22;19999;-84
2022/10/13 11:51:06;;;;;;;33.47;27.63;;;;;;;;;;6284743;22;20014;-89
2022/10/13 11:53:39;;;;;;;30.40;26.70;;;;;;;;;;6305568;22;20064;-87
2022/10/13 11:56:17;;;;;;;33.53;30.00;;;;;;;;;;6305997;22;20010;-83
2022/10/13 11:58:43;;;;;;;35.88;31.98;;;;;;;;;;6305491;22;20003;-85
2022/10/13 12:01:14;;;;;;;37.63;30.13;;;;;;;;;;6305599;22;20003;-84
2022/10/13 12:03:44;;;;;;;42.83;28.73;;;;;;;;;;6305912;22;19999;-82
2022/10/13 12:06:16;;;;;;;65.07;41.00;;;;;;;;;;6303602;22;20453;-84
2022/10/13 12:08:45;;;;;;;59.00;40.03;;;;;;;;;;6305213;22;19996;-85
2022/10/13 12:11:21;;;;;;;49.55;33.50;;;;;;;;;;6276308;22;20021;-85
2022/10/13 12:13:48;;;;;;;73.78;65.45;;;;;;;;;;6304937;22;20008;-82
2022/10/13 12:16:14;;;;;;;57.75;39.00;;;;;;;;;;6305267;22;20007;-83
2022/10/13 12:18:40;;;;;;;71.57;37.40;;;;;;;;;;6305189;22;20496;-83
2022/10/13 12:21:11;;;;;;;35.70;30.88;;;;;;;;;;6305470;22;20006;-82
2022/10/13 12:23:37;;;;;;;47.00;31.25;;;;;;;;;;6304901;22;20388;-85
2022/10/13 12:26:04;;;;;;;58.47;42.55;;;;;;;;;;6278179;22;20027;-84
2022/10/13 12:28:49;;;;;;;51.28;35.55;;;;;;;;;;6304074;22;20010;-82
2022/10/13 12:31:17;;;;;;;34.88;27.90;;;;;;;;;;6277002;22;20013;-90
2022/10/13 12:33:43;;;;;;;35.97;28.90;;;;;;;;;;6305728;22;20026;-82
2022/10/13 12:36:33;;;;;;;86.18;69.75;;;;;;;;;;6305194;22;20438;-87
2022/10/13 12:39:04;;;;;;;64.15;45.50;;;;;;;;;;6290364;22;20003;-85
2022/10/13 12:41:33;;;;;;;42.67;35.25;;;;;;;;;;6278907;22;20011;-83
2022/10/13 12:43:59;;;;;;;35.67;29.02;;;;;;;;;;6279715;22;19999;-86
2022/10/13 12:47:02;;;;;;;33.83;26.60;;;;;;;;;;6306017;22;19999;-82
2022/10/13 12:49:29;;;;;;;42.13;28.58;;;;;;;;;;6156292;23;20017;-84
2022/10/13 12:51:58;;;;;;;48.47;28.00;;;;;;;;;;6181274;23;20009;-82
2022/10/13 12:54:29;;;;;;;26.95;22.67;;;;;;;;;;6182098;23;20012;-81
2022/10/13 12:56:59;;;;;;;42.22;34.42;;;;;;;;;;6210048;22;20015;-81
2022/10/13 12:59:27;;;;;;;51.50;39.25;;;;;;;;;;6306892;22;20007;-83
2022/10/13 13:02:02;;;;;;;287.02;96.88;;;;;;;;;;6305903;22;20336;-82
2022/10/13 13:04:31;;;;;;;217.65;92.75;;;;;;;;;;6305162;22;20015;-81
2022/10/13 13:06:59;;;;;;;184.77;91.30;;;;;;;;;;6306410;22;20004;-81
2022/10/13 13:09:44;;;;;;;115.38;65.75;;;;;;;;;;6280553;22;20018;-82
2022/10/13 13:12:10;;;;;;;73.90;46.78;;;;;;;;;;6307389;22;20003;-86
2022/10/13 13:14:36;;;;;;;83.35;49.33;;;;;;;;;;6308305;22;20052;-87
2022/10/13 13:17:03;;;;;;;138.35;57.63;;;;;;;;;;6280993;22;20014;-85
2022/10/13 13:19:31;;;;;;;139.13;54.67;;;;;;;;;;6309315;22;20010;-87
2022/10/13 13:21:57;;;;;;;43.08;26.23;;;;;;;;;;6307692;22;20007;-86
2022/10/13 13:24:23;;;;;;;38.78;24.30;;;;;;;;;;6280666;22;20045;-84
2022/10/13 13:26:49;;;;;;;39.95;24.80;;;;;;;;;;6307571;22;20510;-83
2022/10/13 13:29:16;;;;;;;44.35;27.10;;;;;;;;;;6307874;22;20011;-82
2022/10/13 13:31:42;;;;;;;29.83;23.27;;;;;;;;;;6306935;22;20450;-84
2022/10/13 13:34:08;;;;;;;27.77;21.55;;;;;;;;;;6307100;22;20006;-83
2022/10/13 13:36:34;;;;;;;39.30;24.25;;;;;;;;;;6307049;22;20053;-82
2022/10/13 13:39:00;;;;;;;47.67;27.77;;;;;;;;;;6308448;22;20006;-81
2022/10/13 13:41:29;;;;;;;25.52;21.60;;;;;;;;;;6308032;22;20010;-83
2022/10/13 13:43:55;;;;;;;92.18;40.33;;;;;;;;;;6306830;22;20331;-84
2022/10/13 13:46:23;;;;;;;69.07;36.47;;;;;;;;;;6307302;22;19995;-82
2022/10/13 13:48:49;;;;;;;70.97;39.03;;;;;;;;;;6307812;22;20012;-83
2022/10/13 13:51:16;;;;;;;134.88;50.92;;;;;;;;;;6307730;22;19999;-82
2022/10/13 13:53:45;;;;;;;69.78;36.20;;;;;;;;;;6307708;22;20406;-80
2022/10/13 13:56:12;;;;;;;64.35;31.38;;;;;;;;;;6307112;22;20430;-81
2022/10/13 13:58:38;;;;;;;88.85;39.83;;;;;;;;;;6307937;22;20378;-80
2022/10/13 14:01:04;;;;;;;38.92;25.98;;;;;;;;;;6307888;22;20078;-81
2022/10/13 14:03:30;;;;;;;73.90;35.30;;;;;;;;;;6307849;22;20006;-83
2022/10/13 14:05:57;;;;;;;73.15;46.05;;;;;;;;;;6279500;22;20030;-82
2022/10/13 14:08:23;;;;;;;111.47;48.40;;;;;;;;;;6307631;22;20030;-84
2022/10/13 14:10:49;;;;;;;134.18;54.53;;;;;;;;;;6307644;22;20007;-86
2022/10/13 14:13:15;;;;;;;108.82;44.97;;;;;;;;;;6307748;22;19996;-82
2022/10/13 14:15:41;;;;;;;92.10;41.33;;;;;;;;;;6308047;22;19999;-80
2022/10/13 14:18:07;;;;;;;113.38;45.33;;;;;;;;;;6280187;22;20111;-83
2022/10/13 14:20:33;;;;;;;103.47;41.97;;;;;;;;;;6279734;22;20362;-81
2022/10/13 14:22:59;;;;;;;122.38;49.72;;;;;;;;;;6306244;22;19999;-81
2022/10/13 14:25:25;;;;;;;102.43;44.80;;;;;;;;;;6307359;22;20443;-84
2022/10/13 14:27:52;;;;;;;166.05;60.30;;;;;;;;;;6280435;22;20021;-84
2022/10/13 14:30:18;;;;;;;104.32;46.20;;;;;;;;;;6307677;22;20015;-85
2022/10/13 14:32:44;;;;;;;93.88;41.65;;;;;;;;;;6307140;22;20007;-84
2022/10/13 14:35:10;;;;;;;74.78;37.63;;;;;;;;;;6278937;22;20007;-82